Boca Raton, FL (33433)

12:48 AM EDT on May 06, 2015 (GMT -0400)
Terra Tranquila | | Change Station
CLOSE
Current Station
Personal Weather Station
Location: Boca Raton, FL
Elevation: 30 ft
Nearby Weather Stations

Elev 30 ft 26.34 °N, 80.15 °W | Updated 12 seconds ago

Overcast
Overcast
69.4 °F
Feels Like 69.4 °F
N
1.7
Wind Variable Wind from ESE
Gusts 6.3 mph

Today
High -- | Low -- °F
--% Chance of Precip.
Yesterday
High -- | Low -- °F
Precip. -- in
6:39 AM 7:55 PM
Waning Gibbous, 96% visible
Pressure 30.06 in
Visibility 10.0 miles
Clouds Few 1500 ft
Mostly Cloudy 4000 ft
Mostly Cloudy 5000 ft
Dew Point 65 °F
Humidity 87%
Rainfall 0.00 in
Snow Depth Not available.
UV 0 out of 12
Pollen .60 out of 12
Air Quality Not available.
Flu Activity Local Activity
METAR KPMP 060353Z AUTO 04009KT 10SM FEW015 BKN040 BKN050 23/20 A3005 RMK AO2 SLP177 T02280200

More Conditions Fewer Conditions

Pressure 30.06 in
Visibility 10.0 miles
Clouds Few 1500 ft
Mostly Cloudy 4000 ft
Mostly Cloudy 5000 ft
Dew Point 65 °F
Humidity 87%
Rainfall 0.00 in
Snow Depth Not available.
UV 0 out of 12
Pollen .60 out of 12
Air Quality Not available.
Flu Activity Local Activity
METAR KPMP 060353Z AUTO 04009KT 10SM FEW015 BKN040 BKN050 23/20 A3005 RMK AO2 SLP177 T02280200

More Conditions Fewer Conditions

Nowcast | as of 11:00 PM EDT on May 5, 2015

Through 1 am isolated to scattered showers will be impacting mainly portions of coastal and Metro Broward and Palm Beach counties as they move in from the east and northeast off the Atlantic waters. Main concerns with the activity will be brief periods of heavy rain and gusty winds in excess of 25 mph.

×

10-Day Weather Forecast

Almanac

Astronomy

May. 06, 2015 Rise Set
Actual Time
Civil Twilight
Nautical Twilight
Astronomical Twilight
Moon
Length of Visible Light
Length of Day
Tomorrow will be .
, % of the Moon is Illuminated

Today's Extremes

State Highs State Lows

Community

WunderPhotos

Upload Photos

1,818,874 photos uploaded!

WunderBlogs® & News

Nearby

Air Quality

  Air Quality AQ Index Pollutant
Not available.

Snow Depth

Station Depth Elevation

Earthquake Activity

City Distance Mag. Time & Date
Minimum magnitude displayed is 2.5.

Coastal Water Temperatures

Place Temperature

Stations

Nearby Weather Stations

Station Location Temp. Windchill Dew Point Humidity Wind Precip. Elev Updated Type